VECC/CCU METAR and TAF weather

Enter ICAO airport designator
Station Type Date Time Source
VECC METAR 2019/06/18 13:30 UTC NOAA

VECC 181330Z 00000KT 2800 HZ SCT018 FEW030CB SCT100 27/26 Q0997 TEMPO TL1400 2000 TSRA


Station Type Date Time Source
VECC Decoded METAR 2019/06/18 13:30 UTC NOAA

Calcutta / Dum Dum, India (VECC) 22-39N 088-27E 6M
Jun 18, 2019 - 09:30 AM EDT / 2019.06.18 1330 UTC
Wind: Calm:0
Visibility: 1 mile(s):0
Sky conditions: partly cloudy
Weather: haze; Cumulonimbus clouds observed
Temperature: 80 F (27 C)
Dew Point: 78 F (26 C)
Relative Humidity: 94%
Pressure (altimeter): 29.44 in. Hg (0997 hPa)
ob: VECC 181330Z 00000KT 2800 HZ SCT018 FEW030CB SCT100 27/26 Q0997 TEMPO TL1400 2000 TSRA
cycle: 13

Station Type Date Time Source
VECC TAF 2019/06/18 12:42 UTC NOAA

TAF VECC 181100Z 1812/1918 17008KT 3200 HZ SCT018 BKN100
TEMPO 1812/1816 29020G30KT 2000 TSRA SCT015 FEW025CB OVC090
BECMG 1823/1901 11005KT 2500 -RA BR
BECMG 1902/1904 17008KT 3500 HZ
TEMPO 1912/1916 2000 TSRA SCT015 FEW025CB OVC090
BECMG 1916/1918 2900 HZ

Example: see airport list